Wetterdaten: Woche 01.12.08 - 07.12.08 (KW49)
Datum Zeit Temperatur Luftfeuchte Luftdruck Niederschlag Wind Richtung Sonnenschein Solar Taupunkt Windchill Windben
01.12.2008 00:00 -0.9 C 98 % 998.1 hPa 0.0 l/m 0.2 km/h (0 Bft) SO 0.00 h 0 W/m -1.3 C -0.9 C 0.5 km/h (0 Bft)
01.12.2008 01:00 -0.9 C 98 % 997.4 hPa 0.0 l/m 0.1 km/h (0 Bft) SO 0.00 h 0 W/m -1.1 C -0.9 C 0.3 km/h (0 Bft)
01.12.2008 02:00 -0.9 C 98 % 997.1 hPa 0.0 l/m 1.1 km/h (1 Bft) SO 0.00 h 0 W/m -1.2 C -0.9 C 1.8 km/h (1 Bft)
01.12.2008 03:00 -0.9 C 98 % 996.4 hPa 0.0 l/m 0.2 km/h (0 Bft) O-SO 0.00 h 0 W/m -1.2 C -0.9 C 0.7 km/h (0 Bft)
01.12.2008 04:00 -0.8 C 98 % 996.1 hPa 0.0 l/m 3.0 km/h (1 Bft) O-SO 0.00 h 0 W/m -1.1 C -1.1 C 4.4 km/h (1 Bft)
01.12.2008 05:00 -0.4 C 97 % 996.6 hPa 0.0 l/m 1.2 km/h (1 Bft) SO 0.00 h 0 W/m -0.8 C -0.5 C 2.6 km/h (1 Bft)
01.12.2008 06:00 -0.3 C 97 % 996.7 hPa 0.0 l/m 2.6 km/h (1 Bft) O-SO 0.00 h 0 W/m -0.7 C -0.5 C 3.9 km/h (1 Bft)
01.12.2008 07:00 -0.3 C 97 % 996.6 hPa 0.0 l/m 0.7 km/h (0 Bft) O-SO 0.00 h 0 W/m -0.7 C -0.3 C 1.5 km/h (1 Bft)
01.12.2008 08:00 -0.2 C 96 % 996.7 hPa 0.0 l/m 0.3 km/h (0 Bft) O-SO 0.00 h 16 W/m -0.7 C -0.2 C 0.7 km/h (0 Bft)
01.12.2008 09:00 0.1 C 97 % 997.0 hPa 0.0 l/m 0.0 km/h (0 Bft) O-SO 0.00 h 50 W/m -0.3 C 0.1 C 0.3 km/h (0 Bft)
01.12.2008 10:00 0.9 C 95 % 997.4 hPa 0.0 l/m 0.3 km/h (0 Bft) S-SO 0.00 h 67 W/m 0.2 C 0.9 C 0.9 km/h (0 Bft)
01.12.2008 11:00 2.6 C 87 % 997.7 hPa 0.0 l/m 3.3 km/h (1 Bft) S 0.00 h 82 W/m 0.6 C 2.2 C 6.3 km/h (2 Bft)
01.12.2008 12:00 4.0 C 79 % 998.2 hPa 0.0 l/m 2.9 km/h (1 Bft) S 0.00 h 92 W/m 0.6 C 3.8 C 5.8 km/h (2 Bft)
01.12.2008 13:00 4.0 C 84 % 999.0 hPa 0.0 l/m 3.2 km/h (1 Bft) SW 0.00 h 55 W/m 1.6 C 3.6 C 6.2 km/h (2 Bft)
01.12.2008 14:00 3.8 C 88 % 999.9 hPa 0.0 l/m 4.3 km/h (1 Bft) W-SW 0.00 h 50 W/m 1.9 C 3.1 C 7.3 km/h (2 Bft)
01.12.2008 15:00 3.4 C 89 % 1001.0 hPa 0.2 l/m 2.9 km/h (1 Bft) W-SW 0.00 h 26 W/m 1.8 C 3.3 C 5.1 km/h (1 Bft)
01.12.2008 16:00 2.9 C 90 % 1001.9 hPa 0.0 l/m 3.0 km/h (1 Bft) S-SW 0.00 h 9 W/m 1.5 C 2.8 C 6.2 km/h (2 Bft)
01.12.2008 17:00 2.7 C 93 % 1002.7 hPa 0.0 l/m 3.6 km/h (1 Bft) S 0.00 h 0 W/m 1.6 C 2.2 C 6.8 km/h (2 Bft)
01.12.2008 18:00 2.6 C 94 % 1003.6 hPa 0.0 l/m 3.1 km/h (1 Bft) S-SO 0.00 h 0 W/m 1.7 C 2.4 C 5.8 km/h (2 Bft)
01.12.2008 19:00 2.7 C 93 % 1004.4 hPa 0.0 l/m 2.2 km/h (1 Bft) S-SW 0.00 h 0 W/m 1.8 C 2.5 C 4.2 km/h (1 Bft)
01.12.2008 20:00 2.7 C 93 % 1004.8 hPa 0.0 l/m 2.6 km/h (1 Bft) S-SO 0.00 h 0 W/m 1.7 C 2.5 C 4.6 km/h (1 Bft)
01.12.2008 21:00 2.5 C 93 % 1005.5 hPa 0.0 l/m 1.5 km/h (1 Bft) S-SO 0.00 h 0 W/m 1.5 C 2.4 C 3.4 km/h (1 Bft)
01.12.2008 22:00 2.2 C 93 % 1005.9 hPa 0.0 l/m 0.8 km/h (0 Bft) SO 0.00 h 0 W/m 1.2 C 2.2 C 1.9 km/h (1 Bft)
01.12.2008 23:00 2.2 C 94 % 1006.2 hPa 0.0 l/m 1.2 km/h (1 Bft) SO 0.00 h 0 W/m 1.3 C 2.2 C 2.3 km/h (1 Bft)
02.12.2008 00:00 2.0 C 95 % 1006.6 hPa 0.0 l/m 2.1 km/h (1 Bft) S-SO 0.00 h 0 W/m 1.3 C 1.8 C 3.4 km/h (1 Bft)
02.12.2008 01:00 2.0 C 96 % 1006.7 hPa 0.0 l/m 2.9 km/h (1 Bft) S-SO 0.00 h 0 W/m 1.4 C 1.6 C 5.0 km/h (1 Bft)
02.12.2008 02:00 1.9 C 96 % 1007.0 hPa 0.0 l/m 0.7 km/h (0 Bft) SO 0.00 h 0 W/m 1.4 C 1.9 C 1.3 km/h (1 Bft)
02.12.2008 03:00 2.1 C 97 % 1007.5 hPa 0.0 l/m 1.7 km/h (1 Bft) S 0.00 h 0 W/m 1.7 C 2.1 C 3.9 km/h (1 Bft)
02.12.2008 04:00 2.5 C 97 % 1007.9 hPa 0.0 l/m 1.7 km/h (1 Bft) S-SO 0.00 h 0 W/m 2.0 C 2.3 C 3.7 km/h (1 Bft)
02.12.2008 05:00 2.6 C 96 % 1008.4 hPa 0.2 l/m 1.6 km/h (1 Bft) S 0.00 h 0 W/m 2.1 C 2.6 C 3.3 km/h (1 Bft)
02.12.2008 06:00 2.7 C 96 % 1008.8 hPa 0.2 l/m 0.0 km/h (0 Bft) S-SO 0.00 h 0 W/m 2.1 C 2.7 C 0.3 km/h (0 Bft)
02.12.2008 07:00 2.6 C 96 % 1009.5 hPa 0.0 l/m 0.1 km/h (0 Bft) S-SO 0.00 h 0 W/m 2.0 C 2.6 C 0.6 km/h (0 Bft)
02.12.2008 08:00 2.5 C 96 % 1010.2 hPa 0.0 l/m 0.3 km/h (0 Bft) S-SO 0.00 h 19 W/m 1.9 C 2.5 C 1.4 km/h (1 Bft)
02.12.2008 09:00 2.9 C 96 % 1010.9 hPa 0.0 l/m 0.7 km/h (0 Bft) S-SW 0.02 h 58 W/m 2.3 C 2.9 C 2.3 km/h (1 Bft)
02.12.2008 10:00 3.6 C 92 % 1011.4 hPa 0.0 l/m 6.3 km/h (2 Bft) W 0.18 h 97 W/m 2.4 C 2.2 C 10.4 km/h (2 Bft)
02.12.2008 11:00 3.0 C 91 % 1011.7 hPa 0.4 l/m 8.7 km/h (2 Bft) W 0.00 h 72 W/m 1.6 C 0.7 C 14.3 km/h (3 Bft)
02.12.2008 12:00 3.0 C 89 % 1011.7 hPa 0.0 l/m 7.3 km/h (2 Bft) W 0.07 h 106 W/m 1.4 C 1.1 C 12.4 km/h (3 Bft)
02.12.2008 13:00 3.8 C 82 % 1011.8 hPa 0.0 l/m 9.7 km/h (2 Bft) W 0.32 h 146 W/m 1.0 C 1.4 C 15.6 km/h (3 Bft)
02.12.2008 14:00 3.7 C 76 % 1011.8 hPa 0.0 l/m 10.0 km/h (2 Bft) W 0.23 h 99 W/m -0.2 C 1.2 C 15.7 km/h (3 Bft)
02.12.2008 15:00 3.6 C 71 % 1012.2 hPa 0.0 l/m 12.4 km/h (3 Bft) W 0.30 h 64 W/m -1.3 C 0.6 C 19.2 km/h (3 Bft)
02.12.2008 16:00 2.8 C 69 % 1012.7 hPa 0.0 l/m 7.7 km/h (2 Bft) W-NW 0.02 h 11 W/m -2.2 C 0.7 C 12.3 km/h (3 Bft)
02.12.2008 17:00 1.8 C 72 % 1012.8 hPa 0.0 l/m 3.9 km/h (1 Bft) W-NW 0.00 h 0 W/m -2.8 C 1.4 C 6.1 km/h (2 Bft)
02.12.2008 18:00 0.7 C 76 % 1013.1 hPa 0.0 l/m 2.4 km/h (1 Bft) W-NW 0.00 h 0 W/m -3.1 C 0.5 C 3.4 km/h (1 Bft)
02.12.2008 19:00 -0.4 C 81 % 1013.5 hPa 0.0 l/m 2.2 km/h (1 Bft) O-NO 0.00 h 0 W/m -3.3 C -0.7 C 3.3 km/h (1 Bft)
02.12.2008 20:00 -1.0 C 84 % 1013.7 hPa 0.0 l/m 3.1 km/h (1 Bft) O 0.00 h 0 W/m -3.3 C -1.6 C 4.3 km/h (1 Bft)
02.12.2008 21:00 -1.5 C 86 % 1013.5 hPa 0.0 l/m 2.2 km/h (1 Bft) O 0.00 h 0 W/m -3.6 C -1.9 C 3.2 km/h (1 Bft)
02.12.2008 22:00 -2.0 C 88 % 1013.3 hPa 0.0 l/m 1.6 km/h (1 Bft) O 0.00 h 0 W/m -3.7 C -2.1 C 2.6 km/h (1 Bft)
02.12.2008 23:00 -2.3 C 90 % 1013.0 hPa 0.0 l/m 1.2 km/h (1 Bft) O 0.00 h 0 W/m -3.8 C -2.4 C 2.0 km/h (1 Bft)
03.12.2008 00:00 -2.6 C 90 % 1012.2 hPa 0.0 l/m 0.1 km/h (0 Bft) O 0.00 h 0 W/m -4.0 C -2.6 C 0.3 km/h (0 Bft)
03.12.2008 01:00 -3.1 C 90 % 1011.4 hPa 0.0 l/m 0.3 km/h (0 Bft) O 0.00 h 0 W/m -4.4 C -3.1 C 0.7 km/h (0 Bft)
03.12.2008 02:00 -3.2 C 92 % 1010.7 hPa 0.0 l/m 0.4 km/h (0 Bft) O 0.00 h 0 W/m -4.4 C -3.2 C 1.0 km/h (0 Bft)
03.12.2008 03:00 -2.8 C 92 % 1009.7 hPa 0.0 l/m 2.6 km/h (1 Bft) S-SO 0.00 h 0 W/m -3.8 C -3.4 C 4.8 km/h (1 Bft)
03.12.2008 04:00 -1.5 C 88 % 1008.5 hPa 0.0 l/m 2.6 km/h (1 Bft) S-SO 0.00 h 0 W/m -3.3 C -1.7 C 4.7 km/h (1 Bft)
03.12.2008 05:00 -1.1 C 84 % 1007.5 hPa 0.0 l/m 2.8 km/h (1 Bft) S 0.00 h 0 W/m -3.5 C -1.4 C 5.2 km/h (1 Bft)
03.12.2008 06:00 -0.4 C 80 % 1006.8 hPa 0.0 l/m 5.5 km/h (1 Bft) S-SO 0.00 h 0 W/m -3.5 C -2.0 C 10.0 km/h (2 Bft)
03.12.2008 07:00 -0.2 C 77 % 1006.2 hPa 0.0 l/m 3.9 km/h (1 Bft) S-SO 0.00 h 8 W/m -3.8 C -1.0 C 6.9 km/h (2 Bft)
03.12.2008 08:00 0.3 C 73 % 1005.5 hPa 0.0 l/m 5.3 km/h (1 Bft) S-SO 0.43 h 39 W/m -3.9 C -1.1 C 8.8 km/h (2 Bft)
03.12.2008 09:00 1.0 C 71 % 1004.8 hPa 0.0 l/m 6.2 km/h (2 Bft) S-SO 0.00 h 71 W/m -3.6 C -0.7 C 12.1 km/h (2 Bft)
03.12.2008 10:00 1.9 C 68 % 1004.2 hPa 0.0 l/m 5.4 km/h (1 Bft) S-SW 0.00 h 111 W/m -3.4 C 0.5 C 10.0 km/h (2 Bft)
03.12.2008 11:00 2.8 C 64 % 1003.2 hPa 0.0 l/m 4.6 km/h (1 Bft) S-SW 0.22 h 158 W/m -3.3 C 1.9 C 8.2 km/h (2 Bft)
03.12.2008 12:00 3.8 C 59 % 1002.3 hPa 0.0 l/m 4.6 km/h (1 Bft) S 0.47 h 176 W/m -3.4 C 3.1 C 8.9 km/h (2 Bft)
03.12.2008 13:00 4.4 C 57 % 1001.8 hPa 0.0 l/m 3.2 km/h (1 Bft) S-SW 0.00 h 103 W/m -3.4 C 4.1 C 6.3 km/h (2 Bft)
03.12.2008 14:00 4.5 C 58 % 1001.7 hPa 0.0 l/m 3.1 km/h (1 Bft) S 0.00 h 76 W/m -3.1 C 4.1 C 6.5 km/h (2 Bft)
03.12.2008 15:00 4.5 C 63 % 1002.0 hPa 0.0 l/m 1.1 km/h (1 Bft) W-NW 0.00 h 38 W/m -2.0 C 4.4 C 2.6 km/h (1 Bft)
03.12.2008 16:00 3.3 C 67 % 1002.2 hPa 0.0 l/m 1.7 km/h (1 Bft) O-SO 0.00 h 13 W/m -2.2 C 3.3 C 3.3 km/h (1 Bft)
03.12.2008 17:00 2.8 C 72 % 1002.7 hPa 0.0 l/m 1.0 km/h (0 Bft) N 0.00 h 0 W/m -1.7 C 2.8 C 2.3 km/h (1 Bft)
03.12.2008 18:00 2.5 C 74 % 1003.7 hPa 0.0 l/m 0.2 km/h (0 Bft) N 0.00 h 0 W/m -1.6 C 2.5 C 0.7 km/h (0 Bft)
03.12.2008 19:00 2.3 C 78 % 1004.9 hPa 0.0 l/m 1.1 km/h (1 Bft) O-SO 0.00 h 0 W/m -1.1 C 2.2 C 1.9 km/h (1 Bft)
03.12.2008 20:00 2.4 C 82 % 1005.8 hPa 0.0 l/m 1.8 km/h (1 Bft) O-SO 0.00 h 0 W/m -0.3 C 2.2 C 2.8 km/h (1 Bft)
03.12.2008 21:00 3.3 C 89 % 1005.8 hPa 0.0 l/m 2.1 km/h (1 Bft) S-SO 0.00 h 0 W/m 1.8 C 3.1 C 3.8 km/h (1 Bft)
03.12.2008 22:00 2.9 C 89 % 1006.0 hPa 0.0 l/m 0.1 km/h (0 Bft) S 0.00 h 0 W/m 1.3 C 2.9 C 0.7 km/h (0 Bft)
03.12.2008 23:00 2.7 C 91 % 1006.2 hPa 0.0 l/m 0.4 km/h (0 Bft) S 0.00 h 0 W/m 1.3 C 2.7 C 1.2 km/h (1 Bft)
04.12.2008 00:00 2.8 C 92 % 1006.1 hPa 0.0 l/m 1.1 km/h (0 Bft) S 0.00 h 0 W/m 1.7 C 2.8 C 2.8 km/h (1 Bft)
04.12.2008 01:00 2.6 C 92 % 1005.8 hPa 0.0 l/m 0.9 km/h (0 Bft) NW 0.00 h 0 W/m 1.4 C 2.6 C 2.7 km/h (1 Bft)
04.12.2008 02:00 2.0 C 92 % 1005.9 hPa 0.0 l/m 0.5 km/h (0 Bft) NW 0.00 h 0 W/m 0.9 C 1.9 C 0.9 km/h (0 Bft)
04.12.2008 03:00 2.4 C 94 % 1006.0 hPa 0.0 l/m 2.3 km/h (1 Bft) O-SO 0.00 h 0 W/m 1.4 C 2.1 C 3.5 km/h (1 Bft)
04.12.2008 04:00 3.0 C 93 % 1006.1 hPa 0.0 l/m 2.0 km/h (1 Bft) S 0.00 h 0 W/m 1.9 C 2.8 C 4.7 km/h (1 Bft)
04.12.2008 05:00 3.4 C 90 % 1006.0 hPa 0.0 l/m 5.6 km/h (1 Bft) S-SO 0.00 h 0 W/m 1.9 C 2.2 C 11.0 km/h (2 Bft)
04.12.2008 06:00 3.4 C 87 % 1005.5 hPa 0.0 l/m 2.1 km/h (1 Bft) S-SO 0.00 h 0 W/m 1.5 C 3.2 C 4.7 km/h (1 Bft)
04.12.2008 07:00 2.9 C 87 % 1005.0 hPa 0.0 l/m 1.1 km/h (1 Bft) O 0.00 h 7 W/m 1.0 C 2.9 C 2.3 km/h (1 Bft)
04.12.2008 08:00 2.3 C 87 % 1004.2 hPa 0.0 l/m 0.5 km/h (0 Bft) O 0.53 h 35 W/m 0.4 C 2.3 C 1.5 km/h (1 Bft)
04.12.2008 09:00 2.2 C 91 % 1004.2 hPa 0.0 l/m 0.3 km/h (0 Bft) O 0.35 h 90 W/m 0.9 C 2.2 C 0.8 km/h (0 Bft)
04.12.2008 10:00 3.5 C 89 % 1004.0 hPa 0.0 l/m 1.1 km/h (0 Bft) O 0.00 h 102 W/m 1.9 C 3.4 C 2.4 km/h (1 Bft)
04.12.2008 11:00 4.6 C 81 % 1002.8 hPa 0.0 l/m 6.3 km/h (2 Bft) S-SW 0.00 h 79 W/m 1.5 C 3.2 C 11.7 km/h (2 Bft)
04.12.2008 12:00 5.1 C 78 % 1001.4 hPa 0.0 l/m 6.4 km/h (2 Bft) S-SW 0.00 h 62 W/m 1.5 C 3.8 C 12.3 km/h (3 Bft)
04.12.2008 13:00 5.3 C 75 % 999.8 hPa 0.0 l/m 6.1 km/h (2 Bft) S-SW 0.00 h 57 W/m 1.2 C 4.1 C 11.5 km/h (2 Bft)
04.12.2008 14:00 5.5 C 73 % 997.7 hPa 0.0 l/m 7.5 km/h (2 Bft) S-SO 0.00 h 71 W/m 1.0 C 3.9 C 14.6 km/h (3 Bft)
04.12.2008 15:00 5.5 C 73 % 996.5 hPa 0.0 l/m 8.8 km/h (2 Bft) S 0.00 h 36 W/m 1.1 C 3.7 C 16.1 km/h (3 Bft)
04.12.2008 16:00 5.4 C 74 % 995.9 hPa 0.0 l/m 3.8 km/h (1 Bft) S-SO 0.00 h 7 W/m 1.1 C 5.0 C 7.0 km/h (2 Bft)
04.12.2008 17:00 5.2 C 81 % 995.9 hPa 2.2 l/m 5.7 km/h (1 Bft) S 0.00 h 0 W/m 2.2 C 4.2 C 10.0 km/h (2 Bft)
04.12.2008 18:00 4.9 C 88 % 995.9 hPa 0.2 l/m 8.8 km/h (2 Bft) S-SO 0.00 h 0 W/m 3.0 C 2.9 C 15.8 km/h (3 Bft)
04.12.2008 19:00 4.6 C 88 % 995.4 hPa 0.0 l/m 11.3 km/h (2 Bft) S-SO 0.00 h 0 W/m 2.8 C 2.0 C 20.9 km/h (4 Bft)
04.12.2008 20:00 4.6 C 87 % 994.8 hPa 0.0 l/m 5.5 km/h (1 Bft) S-SO 0.00 h 0 W/m 2.6 C 3.6 C 10.6 km/h (2 Bft)
04.12.2008 21:00 4.9 C 87 % 993.8 hPa 0.0 l/m 6.1 km/h (2 Bft) S-SW 0.00 h 0 W/m 2.9 C 3.6 C 10.4 km/h (2 Bft)
04.12.2008 22:00 5.1 C 87 % 993.4 hPa 0.0 l/m 6.6 km/h (2 Bft) S-SO 0.00 h 0 W/m 3.2 C 3.8 C 12.4 km/h (3 Bft)
04.12.2008 23:00 5.0 C 88 % 992.4 hPa 2.0 l/m 4.4 km/h (1 Bft) S-SW 0.00 h 0 W/m 3.2 C 4.4 C 7.8 km/h (2 Bft)
05.12.2008 00:00 4.3 C 91 % 992.7 hPa 2.6 l/m 6.2 km/h (2 Bft) S-SO 0.00 h 0 W/m 3.0 C 3.0 C 10.1 km/h (2 Bft)
05.12.2008 01:00 3.7 C 92 % 992.9 hPa 0.2 l/m 10.2 km/h (2 Bft) S-SW 0.00 h 0 W/m 2.5 C 1.1 C 19.2 km/h (3 Bft)
05.12.2008 02:00 3.9 C 93 % 992.9 hPa 0.2 l/m 5.6 km/h (1 Bft) S-SW 0.00 h 0 W/m 2.8 C 2.7 C 10.0 km/h (2 Bft)
05.12.2008 03:00 4.4 C 93 % 992.9 hPa 0.0 l/m 2.7 km/h (1 Bft) S-SW 0.00 h 0 W/m 3.3 C 4.2 C 5.7 km/h (1 Bft)
05.12.2008 04:00 4.8 C 93 % 992.8 hPa 1.4 l/m 5.9 km/h (2 Bft) S-SW 0.00 h 0 W/m 3.7 C 3.5 C 11.0 km/h (2 Bft)
05.12.2008 05:00 4.8 C 94 % 992.8 hPa 0.4 l/m 4.0 km/h (1 Bft) S 0.00 h 0 W/m 3.8 C 4.3 C 7.7 km/h (2 Bft)
05.12.2008 06:00 4.5 C 95 % 993.1 hPa 0.2 l/m 1.6 km/h (1 Bft) N 0.00 h 0 W/m 3.7 C 4.5 C 3.4 km/h (1 Bft)
05.12.2008 07:00 4.6 C 96 % 993.5 hPa 1.8 l/m 3.6 km/h (1 Bft) S-SW 0.00 h 0 W/m 4.0 C 4.0 C 7.2 km/h (2 Bft)
05.12.2008 08:00 4.8 C 96 % 993.7 hPa 0.2 l/m 3.3 km/h (1 Bft) S-SO 0.00 h 19 W/m 4.2 C 4.4 C 6.2 km/h (2 Bft)
05.12.2008 09:00 5.2 C 96 % 993.5 hPa 0.0 l/m 3.9 km/h (1 Bft) S-SW 0.07 h 57 W/m 4.7 C 4.7 C 7.1 km/h (2 Bft)
05.12.2008 10:00 5.1 C 94 % 994.5 hPa 0.4 l/m 12.1 km/h (2 Bft) W 0.00 h 34 W/m 4.3 C 2.7 C 19.2 km/h (3 Bft)
05.12.2008 11:00 5.3 C 93 % 995.2 hPa 0.0 l/m 4.4 km/h (1 Bft) W 0.00 h 48 W/m 4.3 C 4.5 C 7.4 km/h (2 Bft)
05.12.2008 12:00 5.5 C 91 % 996.0 hPa 0.2 l/m 9.2 km/h (2 Bft) W 0.00 h 110 W/m 4.1 C 3.5 C 14.7 km/h (3 Bft)
05.12.2008 13:00 6.2 C 88 % 996.5 hPa 0.0 l/m 2.9 km/h (1 Bft) W-SW 0.17 h 130 W/m 4.3 C 5.9 C 4.9 km/h (1 Bft)
05.12.2008 14:00 6.6 C 87 % 996.7 hPa 0.0 l/m 3.5 km/h (1 Bft) S-SO 0.02 h 71 W/m 4.7 C 6.1 C 6.5 km/h (2 Bft)
05.12.2008 15:00 6.7 C 80 % 996.5 hPa 0.0 l/m 10.5 km/h (2 Bft) SW 0.07 h 40 W/m 3.6 C 4.7 C 17.1 km/h (3 Bft)
05.12.2008 16:00 6.8 C 78 % 996.9 hPa 0.0 l/m 12.4 km/h (3 Bft) SW 0.02 h 14 W/m 3.2 C 4.4 C 20.8 km/h (4 Bft)
05.12.2008 17:00 6.4 C 83 % 997.4 hPa 0.4 l/m 8.1 km/h (2 Bft) W-SW 0.00 h 0 W/m 3.7 C 4.9 C 13.6 km/h (3 Bft)
05.12.2008 18:00 5.7 C 87 % 997.8 hPa 0.4 l/m 6.5 km/h (2 Bft) S-SW 0.00 h 0 W/m 3.7 C 4.6 C 11.9 km/h (2 Bft)
05.12.2008 19:00 5.5 C 89 % 998.7 hPa 0.6 l/m 5.1 km/h (1 Bft) W 0.00 h 0 W/m 3.9 C 4.6 C 8.9 km/h (2 Bft)
05.12.2008 20:00 5.1 C 91 % 999.2 hPa 0.6 l/m 3.9 km/h (1 Bft) W 0.00 h 0 W/m 3.7 C 4.4 C 7.2 km/h (2 Bft)
05.12.2008 21:00 5.2 C 92 % 999.5 hPa 0.6 l/m 9.2 km/h (2 Bft) SW 0.00 h 0 W/m 4.0 C 3.2 C 14.8 km/h (3 Bft)
05.12.2008 22:00 4.7 C 92 % 1000.9 hPa 0.2 l/m 7.8 km/h (2 Bft) SW 0.00 h 0 W/m 3.5 C 2.9 C 12.7 km/h (3 Bft)
05.12.2008 23:00 4.8 C 91 % 1001.9 hPa 0.0 l/m 6.2 km/h (2 Bft) SW 0.00 h 0 W/m 3.4 C 3.5 C 10.5 km/h (2 Bft)
06.12.2008 00:00 4.7 C 90 % 1003.0 hPa 0.0 l/m 7.9 km/h (2 Bft) SW 0.00 h 0 W/m 3.2 C 2.9 C 12.4 km/h (3 Bft)
06.12.2008 01:00 4.9 C 88 % 1003.7 hPa 0.0 l/m 10.0 km/h (2 Bft) SW 0.00 h 0 W/m 3.0 C 2.7 C 15.6 km/h (3 Bft)
06.12.2008 02:00 5.0 C 81 % 1004.7 hPa 0.0 l/m 6.5 km/h (2 Bft) W-SW 0.00 h 0 W/m 2.0 C 3.7 C 10.7 km/h (2 Bft)
06.12.2008 03:00 4.3 C 86 % 1005.2 hPa 0.4 l/m 4.8 km/h (1 Bft) S-SW 0.00 h 0 W/m 2.3 C 3.5 C 8.2 km/h (2 Bft)
06.12.2008 04:00 4.0 C 90 % 1005.7 hPa 0.0 l/m 2.9 km/h (1 Bft) W-SW 0.00 h 0 W/m 2.5 C 3.7 C 5.2 km/h (1 Bft)
06.12.2008 05:00 3.8 C 91 % 1005.6 hPa 0.0 l/m 1.7 km/h (1 Bft) S-SW 0.00 h 0 W/m 2.5 C 3.8 C 3.8 km/h (1 Bft)
06.12.2008 06:00 3.9 C 91 % 1006.1 hPa 0.0 l/m 3.9 km/h (1 Bft) S-SW 0.00 h 0 W/m 2.6 C 3.3 C 8.0 km/h (2 Bft)
06.12.2008 07:00 4.4 C 88 % 1006.5 hPa 0.0 l/m 7.4 km/h (2 Bft) S-SW 0.00 h 0 W/m 2.6 C 2.7 C 13.4 km/h (3 Bft)
06.12.2008 08:00 4.6 C 86 % 1006.7 hPa 0.4 l/m 7.1 km/h (2 Bft) S-SW 0.00 h 7 W/m 2.5 C 3.0 C 12.6 km/h (3 Bft)
06.12.2008 09:00 4.3 C 90 % 1007.4 hPa 0.8 l/m 7.7 km/h (2 Bft) SW 0.00 h 26 W/m 2.8 C 2.5 C 13.4 km/h (3 Bft)
06.12.2008 10:00 3.9 C 91 % 1007.9 hPa 1.6 l/m 7.5 km/h (2 Bft) S-SW 0.00 h 35 W/m 2.5 C 2.0 C 14.1 km/h (3 Bft)
06.12.2008 11:00 3.2 C 92 % 1008.6 hPa 2.0 l/m 3.6 km/h (1 Bft) S-SW 0.00 h 33 W/m 2.1 C 2.7 C 7.1 km/h (2 Bft)
06.12.2008 12:00 2.9 C 94 % 1008.9 hPa 0.6 l/m 5.4 km/h (1 Bft) S-SW 0.00 h 52 W/m 2.0 C 1.8 C 9.3 km/h (2 Bft)
06.12.2008 13:00 3.6 C 95 % 1009.6 hPa 0.0 l/m 4.7 km/h (1 Bft) S-SW 0.00 h 76 W/m 2.8 C 2.7 C 8.1 km/h (2 Bft)
06.12.2008 14:00 4.0 C 93 % 1010.1 hPa 0.2 l/m 6.1 km/h (2 Bft) S-SW 0.00 h 44 W/m 3.0 C 2.7 C 10.8 km/h (2 Bft)
06.12.2008 15:00 4.0 C 94 % 1011.1 hPa 0.2 l/m 3.0 km/h (1 Bft) S-SW 0.00 h 35 W/m 3.1 C 3.7 C 5.6 km/h (1 Bft)
06.12.2008 16:00 4.2 C 94 % 1012.0 hPa 0.4 l/m 2.3 km/h (1 Bft) W 0.00 h 7 W/m 3.3 C 3.9 C 4.7 km/h (1 Bft)
06.12.2008 17:00 4.2 C 94 % 1013.2 hPa 0.0 l/m 7.1 km/h (2 Bft) W 0.00 h 0 W/m 3.3 C 2.6 C 11.5 km/h (2 Bft)
06.12.2008 18:00 4.2 C 93 % 1014.5 hPa 0.2 l/m 9.0 km/h (2 Bft) W 0.00 h 0 W/m 3.2 C 2.2 C 13.7 km/h (3 Bft)
06.12.2008 19:00 4.1 C 92 % 1015.5 hPa 0.0 l/m 4.3 km/h (1 Bft) W-SW 0.00 h 0 W/m 3.0 C 3.3 C 7.5 km/h (2 Bft)
06.12.2008 20:00 4.1 C 91 % 1016.3 hPa 0.0 l/m 3.4 km/h (1 Bft) W 0.00 h 0 W/m 2.8 C 3.7 C 6.2 km/h (2 Bft)
06.12.2008 21:00 4.3 C 89 % 1017.0 hPa 0.0 l/m 6.8 km/h (2 Bft) W-NW 0.00 h 0 W/m 2.7 C 2.8 C 10.6 km/h (2 Bft)
06.12.2008 22:00 4.5 C 86 % 1017.9 hPa 0.0 l/m 12.1 km/h (2 Bft) W 0.00 h 0 W/m 2.4 C 1.7 C 18.8 km/h (3 Bft)
06.12.2008 23:00 4.2 C 87 % 1018.8 hPa 0.0 l/m 7.8 km/h (2 Bft) W 0.00 h 0 W/m 2.2 C 2.5 C 12.4 km/h (3 Bft)
07.12.2008 00:00 4.0 C 87 % 1019.3 hPa 0.0 l/m 2.7 km/h (1 Bft) S-SO 0.00 h 0 W/m 2.0 C 3.7 C 5.2 km/h (1 Bft)
07.12.2008 01:00 3.8 C 88 % 1019.6 hPa 0.0 l/m 2.7 km/h (1 Bft) W 0.00 h 0 W/m 2.1 C 3.6 C 4.9 km/h (1 Bft)
07.12.2008 02:00 3.4 C 89 % 1020.2 hPa 0.0 l/m 1.3 km/h (1 Bft) S-SW 0.00 h 0 W/m 1.8 C 3.4 C 3.2 km/h (1 Bft)
07.12.2008 03:00 3.1 C 90 % 1020.7 hPa 0.0 l/m 3.4 km/h (1 Bft) S-SO 0.00 h 0 W/m 1.6 C 2.5 C 6.0 km/h (2 Bft)
07.12.2008 04:00 3.3 C 88 % 1020.9 hPa 0.0 l/m 3.7 km/h (1 Bft) S-SO 0.00 h 0 W/m 1.4 C 2.8 C 6.7 km/h (2 Bft)
07.12.2008 05:00 3.3 C 87 % 1021.7 hPa 0.4 l/m 2.3 km/h (1 Bft) S-SO 0.00 h 0 W/m 1.4 C 3.1 C 5.0 km/h (1 Bft)
07.12.2008 06:00 3.2 C 90 % 1022.3 hPa 0.0 l/m 2.6 km/h (1 Bft) S-SO 0.00 h 0 W/m 1.7 C 3.0 C 5.1 km/h (1 Bft)
07.12.2008 07:00 3.1 C 91 % 1023.2 hPa 0.0 l/m 2.2 km/h (1 Bft) S-SO 0.00 h 0 W/m 1.7 C 2.8 C 4.6 km/h (1 Bft)
07.12.2008 08:00 2.8 C 91 % 1023.9 hPa 0.0 l/m 2.5 km/h (1 Bft) S-SO 0.03 h 20 W/m 1.5 C 2.7 C 4.7 km/h (1 Bft)
07.12.2008 09:00 3.3 C 91 % 1024.7 hPa 0.0 l/m 2.5 km/h (1 Bft) S-SO 0.43 h 105 W/m 2.0 C 3.1 C 4.7 km/h (1 Bft)
07.12.2008 10:00 4.5 C 87 % 1025.2 hPa 0.0 l/m 2.3 km/h (1 Bft) W 0.37 h 126 W/m 2.5 C 4.4 C 4.2 km/h (1 Bft)
07.12.2008 11:00 5.1 C 82 % 1025.6 hPa 0.0 l/m 5.0 km/h (1 Bft) W 0.63 h 210 W/m 2.2 C 4.3 C 7.9 km/h (2 Bft)
07.12.2008 12:00 5.6 C 78 % 1025.6 hPa 0.0 l/m 4.2 km/h (1 Bft) W-SW 0.58 h 197 W/m 2.1 C 5.1 C 6.9 km/h (2 Bft)
07.12.2008 13:00 5.6 C 77 % 1025.8 hPa 0.0 l/m 1.5 km/h (1 Bft) W 0.10 h 127 W/m 1.9 C 5.6 C 3.2 km/h (1 Bft)
07.12.2008 14:00 5.7 C 78 % 1026.0 hPa 0.0 l/m 1.9 km/h (1 Bft) N 0.08 h 104 W/m 2.2 C 5.7 C 3.7 km/h (1 Bft)
07.12.2008 15:00 5.4 C 80 % 1026.4 hPa 0.0 l/m 2.2 km/h (1 Bft) N 0.38 h 65 W/m 2.3 C 5.3 C 4.3 km/h (1 Bft)
07.12.2008 16:00 4.7 C 81 % 1026.8 hPa 0.0 l/m 0.7 km/h (0 Bft) O-NO 0.02 h 11 W/m 1.7 C 4.7 C 1.7 km/h (1 Bft)
07.12.2008 17:00 3.3 C 86 % 1027.5 hPa 0.0 l/m 0.3 km/h (0 Bft) O-NO 0.00 h 0 W/m 1.3 C 3.3 C 0.9 km/h (0 Bft)
07.12.2008 18:00 2.4 C 89 % 1028.2 hPa 0.0 l/m 0.0 km/h (0 Bft) N 0.00 h 0 W/m 0.8 C 2.4 C 0.3 km/h (0 Bft)
07.12.2008 19:00 1.6 C 91 % 1028.6 hPa 0.0 l/m 0.0 km/h (0 Bft) N 0.00 h 0 W/m 0.2 C 1.6 C 0.4 km/h (0 Bft)
07.12.2008 20:00 0.7 C 92 % 1029.3 hPa 0.0 l/m 0.1 km/h (0 Bft) O-NO 0.00 h 0 W/m -0.5 C 0.7 C 0.2 km/h (0 Bft)
07.12.2008 21:00 -0.0 C 93 % 1029.4 hPa 0.0 l/m 1.0 km/h (0 Bft) O 0.00 h 0 W/m -1.0 C -0.1 C 1.8 km/h (1 Bft)
07.12.2008 22:00 -0.6 C 95 % 1029.4 hPa 0.0 l/m 0.3 km/h (0 Bft) O 0.00 h 0 W/m -1.3 C -0.6 C 0.8 km/h (0 Bft)
07.12.2008 23:00 -0.5 C 96 % 1029.3 hPa 0.0 l/m 0.1 km/h (0 Bft) O 0.00 h 0 W/m -1.1 C -0.5 C 0.4 km/h (0 Bft)
Min-Datum _ 03.12.08 03.12.08 04.12.08 - 01.12.08 - - - 03.12.08 03.12.08 01.12.08
_ Min-Zeit 02:00 13:25 23:30 - 00:00 - - - 01:55 03:29 00:01
Minimum _ -3.4 C 55 % 992.2 hPa - 0.0 km/h (0 Bft) - - - -4.6 C -6.6 C 0.0 km/h (0 Bft)
Max-Datum _ 05.12.08 01.12.08 07.12.08 05.12.08 05.12.08 - 02.12.08 07.12.08 05.12.08 05.12.08 05.12.08
_ Max-Zeit 16:04 00:07 22:00 00:03 10:12 - 09:35 12:02 09:52 13:55 10:05
Maximum _ 6.9 C 98 % 1029.6 hPa 2.6 l/m 26.1 km/h
W (4 Bft)
- 0.02 h 424 W/m 5.2 C 6.7 C 38.2 km/h
W (5 Bft)
Durchschnitt _ 3.0 C 87 % 1006.8 hPa #23.0 l/m 3.8 km/h (1 Bft) S-SW #6:06 h 66 W/m 1.0 C 2.3 C 6.8 km/h (2 Bft)
© Kaiko 2008